Terminal Aerodrome Forecast
Issued by NWS

Home | Current Version | Previous Version | Text Only | Print | Product List | Glossary On
Versions: 1 2 3 4 5 6 7 8 9 10 11 12 13 14 15
000
FTUS45 KRIW 272300
TAFCPR
TAF
KCPR 272321Z 2800/2824 23016G26KT P6SM SCT120 BKN250
     FM281400 22014KT P6SM VCSH BKN080
     FM282300 27010KT P6SM BKN080=

USA.gov is the U.S. government's official web portal to all federal, state and local government web resources and services.